createdAt,value
2022-10-19T00:01:31.441Z,101969.66
2022-10-19T00:03:59.995Z,101907.72
2022-10-19T00:06:36.505Z,101954.16
2022-10-19T00:09:15.601Z,101956.84
2022-10-19T00:11:46.008Z,101970.34
2022-10-19T00:14:16.044Z,101964.59
2022-10-19T00:16:47.412Z,101968.50
2022-10-19T00:19:18.297Z,101959.00
2022-10-19T00:21:45.754Z,101951.19
2022-10-19T00:24:12.591Z,101953.66
2022-10-19T00:26:39.476Z,101983.75
2022-10-19T00:29:06.343Z,101955.41
2022-10-19T00:31:33.225Z,101954.03
2022-10-19T00:34:02.996Z,101903.56
2022-10-19T00:36:32.754Z,101943.13
2022-10-19T00:39:00.079Z,101950.88
2022-10-19T00:41:30.241Z,101972.28
2022-10-19T00:44:06.331Z,101903.06
2022-10-19T00:46:38.204Z,101962.16
2022-10-19T00:49:24.868Z,101963.53
2022-10-19T00:51:55.584Z,101926.91
2022-10-19T00:54:23.332Z,101908.09
2022-10-19T00:56:56.395Z,101965.22
2022-10-19T00:59:25.335Z,101924.84
2022-10-19T01:01:52.966Z,101923.84
2022-10-19T01:04:24.802Z,101940.56
2022-10-19T01:06:54.051Z,101861.91
2022-10-19T01:09:29.248Z,101949.72
2022-10-19T01:12:14.125Z,101951.56
2022-10-19T01:15:09.191Z,101845.00
2022-10-19T01:17:54.903Z,101742.84
2022-10-19T01:21:03.034Z,101941.66
2022-10-19T01:23:54.417Z,101944.66
2022-10-19T01:26:29.836Z,101879.47
2022-10-19T01:29:15.649Z,101941.28
2022-10-19T01:31:48.859Z,101935.91
2022-10-19T01:34:24.707Z,101926.59
2022-10-19T01:37:02.909Z,101930.19
2022-10-19T01:39:49.130Z,101931.22
2022-10-19T01:42:29.561Z,101896.44
2022-10-19T01:45:18.159Z,101919.69
2022-10-19T01:48:09.528Z,101913.63
2022-10-19T01:50:38.772Z,101915.00
2022-10-19T01:53:08.577Z,101900.03
2022-10-19T01:55:42.889Z,101900.19
2022-10-19T01:58:13.441Z,101911.31
2022-10-19T02:00:43.749Z,101819.97
2022-10-19T02:03:22.454Z,101864.75
2022-10-19T02:05:51.725Z,101909.34
2022-10-19T02:08:31.629Z,101904.25
2022-10-19T02:10:59.909Z,101908.78
2022-10-19T02:13:28.629Z,101909.53
2022-10-19T02:15:59.682Z,101797.50
2022-10-19T02:18:36.469Z,101905.38
2022-10-19T02:21:05.256Z,101847.28
2022-10-19T02:23:32.499Z,101900.31
2022-10-19T02:25:59.804Z,101892.69
2022-10-19T02:28:31.267Z,101900.66
2022-10-19T02:31:02.190Z,101896.91
2022-10-19T02:33:30.065Z,101873.78
2022-10-19T02:35:57.926Z,101883.38
2022-10-19T02:38:25.583Z,101900.03
2022-10-19T02:41:02.715Z,101876.47
2022-10-19T02:43:37.622Z,101888.16
2022-10-19T02:46:13.535Z,101858.91
2022-10-19T02:48:45.695Z,101888.94
2022-10-19T02:51:33.973Z,101865.75
2022-10-19T02:54:04.147Z,101824.00
2022-10-19T02:56:33.342Z,101877.50
2022-10-19T02:59:00.582Z,101758.78
2022-10-19T03:01:30.294Z,101870.47
2022-10-19T03:03:57.166Z,101874.16
2022-10-19T03:06:23.890Z,101874.16
2022-10-19T03:08:53.189Z,101887.28
2022-10-19T03:11:20.136Z,101780.88
2022-10-19T03:13:49.511Z,101876.47
2022-10-19T03:16:16.252Z,101868.59
2022-10-19T03:18:42.909Z,101879.34
2022-10-19T03:21:12.129Z,101887.66
2022-10-19T03:23:40.343Z,101846.41
2022-10-19T03:26:11.465Z,101765.50
2022-10-19T03:28:39.373Z,101791.84
2022-10-19T03:31:06.525Z,101866.44
2022-10-19T03:33:33.114Z,101840.41
2022-10-19T03:36:27.930Z,101899.13
2022-10-19T03:38:57.157Z,101885.31
2022-10-19T03:41:27.279Z,101831.41
2022-10-19T03:43:54.325Z,101892.91
2022-10-19T03:46:22.924Z,101868.97
2022-10-19T03:48:50.851Z,101873.47
2022-10-19T03:51:24.756Z,101860.28
2022-10-19T03:54:03.542Z,101887.59
2022-10-19T03:56:32.161Z,101806.84
2022-10-19T03:59:04.520Z,101867.31
2022-10-19T04:01:40.203Z,101835.88
2022-10-19T04:04:14.587Z,101892.06
2022-10-19T04:06:44.311Z,101827.81
2022-10-19T04:09:17.512Z,101831.47
2022-10-19T04:11:47.747Z,101897.25
2022-10-19T04:14:22.977Z,101876.09
2022-10-19T04:17:03.579Z,101896.34
2022-10-19T04:19:30.817Z,101888.59
2022-10-19T04:21:58.679Z,101868.97
2022-10-19T04:24:28.866Z,101892.16
2022-10-19T04:26:56.938Z,101895.47
2022-10-19T04:29:29.494Z,101897.31
2022-10-19T04:32:00.998Z,101894.06
2022-10-19T04:34:30.657Z,101872.56
2022-10-19T04:37:01.345Z,101886.50
2022-10-19T04:39:28.896Z,101889.97
2022-10-19T04:41:55.950Z,101890.63
2022-10-19T04:44:25.436Z,101889.31
2022-10-19T04:46:52.598Z,101845.66
2022-10-19T04:49:20.338Z,101882.19
2022-10-19T04:51:47.082Z,101901.53
2022-10-19T04:54:13.763Z,101888.53
2022-10-19T04:56:40.480Z,101884.19
2022-10-19T04:59:07.423Z,101886.03
2022-10-19T05:01:34.109Z,101860.66
2022-10-19T05:04:03.008Z,101853.38
2022-10-19T05:06:31.216Z,101831.56
2022-10-19T05:08:58.585Z,101877.59
2022-10-19T05:11:25.717Z,101864.44
2022-10-19T05:13:52.686Z,101836.47
2022-10-19T05:16:22.201Z,101872.38
2022-10-19T05:18:53.567Z,101855.25
2022-10-19T05:21:21.977Z,101803.81
2022-10-19T05:23:53.207Z,101834.06
2022-10-19T05:26:22.395Z,101843.78
2022-10-19T06:14:53.618Z,101876.09
2022-10-19T06:17:20.405Z,101880.59
2022-10-19T06:19:47.191Z,101870.03
2022-10-19T06:22:13.902Z,101832.25
2022-10-19T06:24:41.045Z,101888.41
2022-10-19T06:27:09.723Z,101894.16
2022-10-19T06:29:36.508Z,101854.00
2022-10-19T06:32:03.298Z,101898.66
2022-10-19T06:34:30.148Z,101891.59
2022-10-19T06:36:57.087Z,101883.53
2022-10-19T06:39:23.828Z,101898.72
2022-10-19T06:41:53.112Z,101803.44
2022-10-19T06:44:21.001Z,101842.91
2022-10-19T06:46:47.754Z,101914.59
2022-10-19T06:49:14.986Z,101890.09
2022-10-19T06:51:41.919Z,101887.19
2022-10-19T06:54:08.679Z,101879.97
2022-10-19T06:56:35.386Z,101889.97
2022-10-19T06:59:02.127Z,101935.91
2022-10-19T07:01:29.108Z,101938.97
2022-10-19T07:03:56.415Z,101907.34
2022-10-19T07:06:23.712Z,101934.72
2022-10-19T07:08:50.699Z,101938.13
2022-10-19T07:11:22.837Z,101864.91
2022-10-19T07:13:49.949Z,101941.59
2022-10-19T07:16:21.220Z,101944.47
2022-10-19T07:18:52.973Z,101932.88
2022-10-19T07:21:21.665Z,101853.91
2022-10-19T07:23:49.963Z,101939.38
2022-10-19T07:26:23.962Z,101931.13
2022-10-19T07:28:51.307Z,101871.94
2022-10-19T07:31:20.944Z,101877.91
2022-10-19T07:33:53.077Z,101855.56
2022-10-19T07:36:19.878Z,101950.66
2022-10-19T07:38:46.613Z,101920.88
2022-10-19T07:41:17.746Z,101903.31
2022-10-19T07:43:46.087Z,101732.81
2022-10-19T07:46:18.823Z,101926.66
2022-10-19T07:48:45.860Z,101944.59
2022-10-19T07:51:15.252Z,101944.25
2022-10-19T07:53:44.558Z,101877.50
2022-10-19T07:56:14.193Z,101939.94
2022-10-19T07:58:41.935Z,101874.50
2022-10-19T08:01:12.134Z,101915.19
2022-10-19T08:06:28.740Z,101947.72
2022-10-19T08:08:56.079Z,101899.00
2022-10-19T08:11:30.024Z,101852.63
2022-10-19T08:14:00.022Z,101789.72
2022-10-19T08:16:40.636Z,101944.09
2022-10-19T08:19:09.806Z,101835.50
2022-10-19T08:21:40.401Z,101926.13
2022-10-19T08:24:08.512Z,101894.19
2022-10-19T08:26:38.414Z,101882.75
2022-10-19T08:29:12.364Z,101923.28
2022-10-19T08:31:40.202Z,101852.13
2022-10-19T08:34:07.599Z,101923.63
2022-10-19T08:36:35.800Z,101889.94
2022-10-19T08:39:08.582Z,101758.47
2022-10-19T08:41:38.243Z,101936.13
2022-10-19T08:44:36.203Z,101866.16
2022-10-19T08:47:10.057Z,101854.22
2022-10-19T08:49:39.775Z,101886.22
2022-10-19T08:52:29.571Z,101942.19
2022-10-19T08:55:18.141Z,101943.84
2022-10-19T08:58:08.642Z,101945.84
2022-10-19T09:00:54.479Z,101888.19
2022-10-19T09:03:37.640Z,101882.44
2022-10-19T09:06:32.143Z,101924.34
2022-10-19T09:08:59.745Z,101933.09
2022-10-19T09:11:34.413Z,101904.88
2022-10-19T09:14:12.103Z,101934.81
2022-10-19T09:16:38.901Z,101904.44
2022-10-19T09:19:15.629Z,101931.97
2022-10-19T09:22:18.341Z,101873.69
2022-10-19T09:24:55.640Z,101931.50
2022-10-19T09:27:29.871Z,101928.03
2022-10-19T09:30:04.471Z,101905.72
2022-10-19T09:32:38.175Z,101851.31
2022-10-19T09:35:28.114Z,101896.69
2022-10-19T09:37:58.514Z,101860.56
2022-10-19T09:40:31.030Z,101908.00
2022-10-19T09:43:08.838Z,101915.31
2022-10-19T09:46:00.433Z,101915.69
2022-10-19T09:48:35.434Z,101905.63
2022-10-19T09:51:10.631Z,101916.25
2022-10-19T09:53:38.949Z,101885.38
2022-10-19T09:56:08.434Z,101915.28
2022-10-19T09:58:53.789Z,101910.78
2022-10-19T10:01:41.770Z,101872.50
2022-10-19T10:04:18.990Z,101874.34
2022-10-19T10:06:50.227Z,101913.34
2022-10-19T10:09:29.425Z,101878.19
2022-10-19T10:12:00.515Z,101828.72
2022-10-19T10:14:32.085Z,101870.84
2022-10-19T10:17:19.591Z,101917.00
2022-10-19T10:19:58.858Z,101764.19
2022-10-19T10:22:34.318Z,101695.88
2022-10-19T10:25:01.908Z,101897.31
2022-10-19T10:27:32.096Z,101772.34
2022-10-19T10:30:00.486Z,101899.97
2022-10-19T10:32:28.925Z,101770.13
2022-10-19T10:35:46.855Z,101657.19
2022-10-19T10:38:29.685Z,101836.06
2022-10-19T10:41:12.884Z,101829.06
2022-10-19T10:44:07.499Z,101777.56
2022-10-19T10:46:37.319Z,101736.50
2022-10-19T10:49:18.698Z,101854.88
2022-10-19T10:51:53.436Z,101875.22
2022-10-19T10:54:32.038Z,101803.53
2022-10-19T11:00:08.325Z,101862.78
2022-10-19T11:02:48.092Z,101761.06
2022-10-19T11:05:47.553Z,101855.72
2022-10-19T11:08:51.575Z,101847.56
2022-10-19T11:11:28.185Z,101850.72
2022-10-19T11:14:08.654Z,101848.16
2022-10-19T11:16:41.851Z,101730.72
2022-10-19T11:19:20.364Z,101770.00
2022-10-19T11:22:15.490Z,101642.91
2022-10-19T11:24:55.418Z,101824.41
2022-10-19T11:27:43.597Z,101835.41
2022-10-19T11:30:24.670Z,101837.44
2022-10-19T11:33:35.364Z,101802.41
2022-10-19T11:36:31.814Z,101813.72
2022-10-19T11:39:22.641Z,101807.22
2022-10-19T11:42:06.948Z,101749.75
2022-10-19T11:44:36.516Z,101751.06
2022-10-19T11:47:24.471Z,101804.28
2022-10-19T11:50:02.486Z,101735.13
2022-10-19T11:53:00.899Z,101750.88
2022-10-19T11:55:52.433Z,101781.56
2022-10-19T11:58:49.886Z,101785.50
2022-10-19T12:01:45.667Z,101765.16
2022-10-19T12:04:38.758Z,101721.22
2022-10-19T12:07:43.896Z,101775.47
2022-10-19T12:10:29.545Z,101774.19
2022-10-19T12:13:03.673Z,101654.91
2022-10-19T12:15:39.752Z,101770.19
2022-10-19T12:18:32.366Z,101714.25
2022-10-19T12:21:04.795Z,101769.53
2022-10-19T12:23:35.549Z,101771.19
2022-10-19T12:26:05.953Z,101714.91
2022-10-19T12:28:35.953Z,101706.13
2022-10-19T12:31:04.884Z,101750.28
2022-10-19T12:33:37.103Z,101741.44
2022-10-19T12:36:03.803Z,101736.03
2022-10-19T12:38:45.988Z,101747.13
2022-10-19T12:41:20.318Z,101681.13
2022-10-19T12:43:56.381Z,101741.94
2022-10-19T12:46:42.950Z,101745.69
2022-10-19T12:49:31.620Z,101739.28
2022-10-19T12:52:53.188Z,101737.41
2022-10-19T12:55:35.100Z,101725.13
2022-10-19T12:58:17.075Z,101675.91
2022-10-19T13:01:07.791Z,101720.69
2022-10-19T13:03:41.321Z,101703.97
2022-10-19T13:06:29.423Z,101711.97
2022-10-19T13:09:04.948Z,101696.25
2022-10-19T13:14:26.466Z,101680.38
2022-10-19T13:16:59.601Z,101661.75
2022-10-19T13:19:26.792Z,101615.63
2022-10-19T13:22:20.477Z,101681.91
2022-10-19T13:25:21.669Z,101695.28
2022-10-19T13:27:52.230Z,101698.84
2022-10-19T13:30:37.157Z,101694.88
2022-10-19T13:33:25.715Z,101700.28
2022-10-19T13:35:58.669Z,101697.13
2022-10-19T13:38:59.604Z,101689.38
2022-10-19T13:41:37.252Z,101644.00
2022-10-19T13:44:20.974Z,101687.78
2022-10-19T13:46:52.180Z,101636.34
2022-10-19T13:49:32.611Z,101663.84
2022-10-19T13:52:02.585Z,101616.25
2022-10-19T13:54:51.350Z,101666.47
2022-10-19T13:57:44.128Z,101669.81
2022-10-19T14:00:21.249Z,101671.34
2022-10-19T14:02:54.533Z,101651.84
2022-10-19T14:06:02.252Z,101641.13
2022-10-19T14:08:40.575Z,101662.25
2022-10-19T14:11:35.138Z,101531.63
2022-10-19T14:14:13.421Z,101646.88
2022-10-19T14:16:56.082Z,101643.06
2022-10-19T14:19:43.644Z,101640.16
2022-10-19T14:22:38.817Z,101641.22
2022-10-19T14:25:18.294Z,101633.25
2022-10-19T14:27:54.320Z,101604.59
2022-10-19T14:30:31.774Z,101626.53
2022-10-19T14:33:02.843Z,101560.38
2022-10-19T14:35:36.243Z,101634.28
2022-10-19T14:38:08.733Z,101633.81
2022-10-19T14:40:41.465Z,101565.78
2022-10-19T14:43:32.540Z,101618.97
2022-10-19T14:46:08.562Z,101626.28
2022-10-19T14:48:36.944Z,101622.00
2022-10-19T14:51:10.171Z,101582.56
2022-10-19T14:53:54.549Z,101621.31
2022-10-19T14:56:33.318Z,101630.50
2022-10-19T14:59:04.980Z,101621.72
2022-10-19T15:01:32.124Z,101611.88
2022-10-19T15:04:00.107Z,101617.13
2022-10-19T15:06:32.037Z,101525.84
2022-10-19T15:09:09.400Z,101610.81
2022-10-19T15:11:47.441Z,101579.44
2022-10-19T15:14:19.447Z,101580.09
2022-10-19T15:16:50.691Z,101519.34
2022-10-19T15:19:29.398Z,101608.75
2022-10-19T15:22:14.690Z,101598.31
2022-10-19T15:25:06.380Z,101602.69
2022-10-19T15:27:40.216Z,101602.09
2022-10-19T15:30:31.168Z,101606.28
2022-10-19T15:33:21.014Z,101607.06
2022-10-19T15:35:49.620Z,101607.06
2022-10-19T15:38:25.391Z,101598.44
2022-10-19T15:41:02.410Z,101616.19
2022-10-19T15:43:34.975Z,101508.56
2022-10-19T15:46:21.831Z,101611.59
2022-10-19T15:49:01.782Z,101614.25
2022-10-19T15:51:30.614Z,101563.31
2022-10-19T15:54:02.019Z,101605.59
2022-10-19T15:56:30.911Z,101502.75
2022-10-19T15:59:00.673Z,101574.78
2022-10-19T16:01:30.186Z,101515.53
2022-10-19T16:03:57.261Z,101526.31
2022-10-19T16:06:27.282Z,101500.25
2022-10-19T16:08:54.328Z,101606.19
2022-10-19T16:11:23.303Z,101595.13
2022-10-19T16:13:51.913Z,101577.91
2022-10-19T16:16:28.560Z,101595.88
2022-10-19T16:18:56.224Z,101572.00
2022-10-19T16:21:26.483Z,101596.63
2022-10-19T16:23:56.827Z,101530.81
2022-10-19T16:26:25.385Z,101576.91
2022-10-19T16:28:55.511Z,101564.91
2022-10-19T16:31:23.223Z,101578.44
2022-10-19T16:33:50.249Z,101572.31
2022-10-19T16:36:20.250Z,101610.19
2022-10-19T16:38:48.769Z,101597.50
2022-10-19T16:41:17.910Z,101490.63
2022-10-19T16:43:47.489Z,101574.28
2022-10-19T16:46:16.208Z,101591.00
2022-10-19T16:48:43.449Z,101601.44
2022-10-19T16:51:27.572Z,101615.63
2022-10-19T16:54:00.404Z,101584.44
2022-10-19T16:56:29.503Z,101633.00
2022-10-19T16:59:01.272Z,101635.44
2022-10-19T17:01:29.077Z,101400.22
2022-10-19T17:03:56.761Z,101515.16
2022-10-19T17:06:27.704Z,101495.69
2022-10-19T17:09:30.202Z,101447.69
2022-10-19T17:11:47.231Z,101638.34
2022-10-19T17:14:14.234Z,101639.56
2022-10-19T17:16:41.381Z,101587.44
2022-10-19T17:19:09.238Z,101573.09
2022-10-19T17:21:38.632Z,101534.41
2022-10-19T17:24:08.622Z,101409.78
2022-10-19T17:26:39.090Z,101646.63
2022-10-19T17:29:08.903Z,101664.34
2022-10-19T17:31:40.249Z,101660.34
2022-10-19T17:34:08.624Z,101625.38
2022-10-19T17:39:11.076Z,101472.56
2022-10-19T17:41:38.171Z,101570.50
2022-10-19T17:44:05.437Z,101601.97
2022-10-19T17:46:35.891Z,101563.88
2022-10-19T17:49:03.649Z,101589.63
2022-10-19T17:51:35.007Z,101644.28
2022-10-19T17:54:04.817Z,101629.44
2022-10-19T17:56:31.917Z,101658.84
2022-10-19T17:59:05.118Z,101448.72
2022-10-19T18:01:31.800Z,101577.94
2022-10-19T18:04:07.947Z,101405.75
2022-10-19T18:06:39.958Z,101603.97
2022-10-19T18:09:08.891Z,101570.91
2022-10-19T18:11:41.858Z,101655.09
2022-10-19T18:14:12.064Z,101607.91
2022-10-19T18:16:45.402Z,101652.63
2022-10-19T18:19:14.159Z,101629.09
2022-10-19T18:21:43.530Z,101606.09
2022-10-19T18:24:21.385Z,101458.75
2022-10-19T18:26:51.627Z,101520.75
2022-10-19T18:29:24.188Z,101672.22
2022-10-19T18:31:52.462Z,101669.06
2022-10-19T18:34:26.537Z,101664.75
2022-10-19T18:36:57.621Z,101670.31
2022-10-19T18:39:24.344Z,101673.75
2022-10-19T18:41:54.703Z,101683.97
2022-10-19T18:44:26.596Z,101617.22
2022-10-19T18:46:57.183Z,101641.78
2022-10-19T18:49:24.503Z,101669.63
2022-10-19T18:51:55.088Z,101667.78
2022-10-19T18:54:22.713Z,101674.22
2022-10-19T18:56:49.450Z,101674.22
2022-10-19T18:59:16.194Z,101653.34
2022-10-19T19:01:42.954Z,101665.63
2022-10-19T19:04:10.373Z,101673.41
2022-10-19T19:06:40.573Z,101670.50
2022-10-19T19:09:19.815Z,101637.59
2022-10-19T19:11:48.707Z,101660.13
2022-10-19T19:14:18.640Z,101675.28
2022-10-19T19:16:48.750Z,101644.34
2022-10-19T19:19:21.180Z,101611.59
2022-10-19T19:21:51.756Z,101687.06
2022-10-19T19:24:22.536Z,101660.38
2022-10-19T19:26:54.665Z,101604.53
2022-10-19T19:29:22.429Z,101577.84
2022-10-19T19:31:49.206Z,101692.53
2022-10-19T19:34:17.105Z,101688.25
2022-10-19T19:36:49.696Z,101650.97
2022-10-19T19:39:20.174Z,101694.34
2022-10-19T19:41:48.761Z,101680.63
2022-10-19T19:44:16.655Z,101686.00
2022-10-19T19:46:44.528Z,101521.56
2022-10-19T19:49:11.994Z,101695.13
2022-10-19T19:51:39.505Z,101661.34
2022-10-19T19:54:06.516Z,101681.88
2022-10-19T19:56:34.811Z,101604.66
2022-10-19T19:59:03.854Z,101681.72
2022-10-19T20:01:31.287Z,101695.72
2022-10-19T20:06:31.077Z,101695.91
2022-10-19T20:08:58.545Z,101702.97
2022-10-19T20:11:27.518Z,101681.06
2022-10-19T20:13:54.528Z,101700.63
2022-10-19T20:16:32.147Z,101701.63
2022-10-19T20:19:11.482Z,101685.28
2022-10-19T20:21:39.247Z,101711.88
2022-10-19T20:24:07.943Z,101709.88
2022-10-19T20:26:35.612Z,101715.75
2022-10-19T20:29:03.975Z,101706.34
2022-10-19T20:31:32.674Z,101691.69
2022-10-19T20:33:59.940Z,101713.38
2022-10-19T20:36:27.239Z,101709.19
2022-10-19T20:39:00.549Z,101719.47
2022-10-19T20:41:29.029Z,101712.22
2022-10-19T20:43:56.031Z,101716.94
2022-10-19T20:46:25.584Z,101679.03
2022-10-19T20:48:52.344Z,101722.31
2022-10-19T20:51:40.872Z,101706.66
2022-10-19T20:54:12.118Z,101724.34
2022-10-19T20:56:44.506Z,101712.91
2022-10-19T20:59:22.793Z,101719.47
2022-10-19T21:01:51.508Z,101706.66
2022-10-19T21:04:25.884Z,101723.50
2022-10-19T21:06:52.870Z,101690.50
2022-10-19T21:09:23.976Z,101704.19
2022-10-19T21:11:51.834Z,101708.72
2022-10-19T21:14:27.196Z,101682.28
2022-10-19T21:16:58.806Z,101715.41
2022-10-19T21:19:29.754Z,101713.75
2022-10-19T21:22:02.296Z,101718.44
2022-10-19T21:24:36.940Z,101655.81
2022-10-19T21:27:07.572Z,101721.16
2022-10-19T21:29:34.556Z,101683.75
2022-10-19T21:32:02.552Z,101701.94
2022-10-19T21:34:31.695Z,101686.44
2022-10-19T21:37:01.695Z,101691.50
2022-10-19T21:39:28.684Z,101721.97
2022-10-19T21:41:55.758Z,101733.22
2022-10-19T21:44:23.285Z,101720.25
2022-10-19T21:46:50.473Z,101628.13
2022-10-19T21:49:17.867Z,101717.56
2022-10-19T21:51:47.917Z,101722.28
2022-10-19T21:54:19.576Z,101665.47
2022-10-19T21:56:48.780Z,101687.50
2022-10-19T21:59:16.139Z,101717.72
2022-10-19T22:01:43.111Z,101692.88
2022-10-19T22:04:13.924Z,101711.78
2022-10-19T22:06:41.372Z,101742.97
2022-10-19T22:09:09.986Z,101729.47
2022-10-19T22:11:36.701Z,101671.00
2022-10-19T22:14:05.377Z,101711.66
2022-10-19T22:16:33.653Z,101683.81
2022-10-19T22:19:00.517Z,101735.03
2022-10-19T22:21:30.318Z,101701.19
2022-10-19T22:24:00.600Z,101715.03
2022-10-19T22:26:33.473Z,101739.94
2022-10-19T22:29:01.610Z,101736.72
2022-10-19T22:31:31.047Z,101736.34
2022-10-19T22:33:59.983Z,101736.53
2022-10-19T22:36:29.117Z,101611.50
2022-10-19T22:38:55.983Z,101725.91
2022-10-19T22:41:22.935Z,101735.50
2022-10-19T22:43:51.046Z,101732.13
2022-10-19T22:46:17.847Z,101705.47
2022-10-19T22:48:44.754Z,101693.34
2022-10-19T22:51:12.913Z,101697.34
2022-10-19T22:53:39.705Z,101698.84
2022-10-19T22:56:06.965Z,101737.41
2022-10-19T22:58:33.823Z,101737.75
2022-10-19T23:01:05.207Z,101739.75
2022-10-19T23:03:32.152Z,101735.88
2022-10-19T23:05:59.348Z,101722.84
2022-10-19T23:08:31.800Z,101741.06
2022-10-19T23:10:58.722Z,101745.75
2022-10-19T23:13:25.872Z,101698.28
2022-10-19T23:15:52.772Z,101729.56
2022-10-19T23:18:19.866Z,101709.19
2022-10-19T23:21:13.670Z,101745.41
2022-10-19T23:23:43.674Z,101755.19
2022-10-19T23:26:13.450Z,101750.44
2022-10-19T23:28:42.205Z,101695.03
2022-10-19T23:31:10.222Z,101750.09
2022-10-19T23:33:37.136Z,101741.31
2022-10-19T23:36:09.094Z,101746.38
2022-10-19T23:38:36.295Z,101709.84
2022-10-19T23:41:07.604Z,101742.22
2022-10-19T23:46:03.952Z,101730.53
2022-10-19T23:48:30.860Z,101734.19
2022-10-19T23:51:06.504Z,101740.44
2022-10-19T23:53:40.021Z,101710.41
2022-10-19T23:56:23.207Z,101731.25
2022-10-19T23:58:51.488Z,101769.00
